Terminal Aerodrome Forecast
Issued by NWS Tampa Bay Area, FL

Current Version | Previous Version | Text Only | Print | Product List | Glossary On
Versions: 1 2 3 4 5 6 7 8 9 10 11 12 13 14 15 16 17 18 19 20 21 22 23 24 25 26 27 28 29 30
000
FTUS42 KTBW 051700
TAFTPA
TAF
KTPA 051730Z 0518/0618 20015KT P6SM SCT035
     FM060000 24005KT P6SM BKN250
     FM060700 34006KT 4SM BR SCT005 OVC015
     FM061100 01008KT P6SM OVC025=

USA.gov is the U.S. government's official web portal to all federal, state and local government web resources and services.